Deerbrook, Mississippi
Current Conditions -  °F | °C
As of 1:55 PM on Thursday 23 Oct 2014 (Local Time) from KGTR Reporting Station
Broken Clouds Broken Clouds  
Wind Chill: 66°   Ceiling: 10000
Heat Index: 66°   Visibility: 10mi
Dew Point: 39°   Wind: 5mph
Humidity: 37%   Direction: 10°N
Pressure: 30.1"   Gusts: NA
Location:  33.2136°N, 88.5275°W
Report Text: KGTR 231855Z 01004KT 10SM BKN100 19/04 A3010
Loading
Personal Weather Stations






























Interactive Weather Map
Tropical Storm Tracking
New forecast layout! Learn more

10-Day Weather Forecast

Advertisements
Track Severe Weather on mobile